sensor_id;sensor_type;location;lat;lon;timestamp;pressure;altitude;pressure_sealevel;temperature;humidity
39891;BME280;25564;53.312;9.790;2023-04-01T00:00:30;98765.16;;;10.53;100.00
39891;BME280;25564;53.312;9.790;2023-04-01T00:03:02;98768.91;;;10.49;100.00
39891;BME280;25564;53.312;9.790;2023-04-01T00:05:34;98776.94;;;10.47;100.00
39891;BME280;25564;53.312;9.790;2023-04-01T00:08:06;98754.13;;;10.26;100.00
39891;BME280;25564;53.312;9.790;2023-04-01T00:10:37;98775.50;;;10.40;100.00
39891;BME280;25564;53.312;9.790;2023-04-01T00:13:09;98770.31;;;10.39;100.00
39891;BME280;25564;53.312;9.790;2023-04-01T00:15:40;98748.31;;;10.18;100.00
39891;BME280;25564;53.312;9.790;2023-04-01T00:18:12;98784.25;;;10.42;100.00
39891;BME280;25564;53.312;9.790;2023-04-01T00:20:47;98736.13;;;10.14;100.00
39891;BME280;25564;53.312;9.790;2023-04-01T00:23:20;98805.19;;;10.48;100.00
39891;BME280;25564;53.312;9.790;2023-04-01T00:25:51;98776.69;;;10.35;100.00
39891;BME280;25564;53.312;9.790;2023-04-01T00:28:23;98752.75;;;10.18;100.00
39891;BME280;25564;53.312;9.790;2023-04-01T00:30:54;98767.25;;;10.29;100.00
39891;BME280;25564;53.312;9.790;2023-04-01T00:33:25;98779.56;;;10.30;100.00
39891;BME280;25564;53.312;9.790;2023-04-01T00:36:31;98795.03;;;10.39;100.00
39891;BME280;25564;53.312;9.790;2023-04-01T00:39:03;98714.50;;;9.86;100.00
39891;BME280;25564;53.312;9.790;2023-04-01T00:41:34;98775.63;;;10.20;100.00
39891;BME280;25564;53.312;9.790;2023-04-01T00:44:33;98787.44;;;10.32;100.00
39891;BME280;25564;53.312;9.790;2023-04-01T00:47:05;98759.91;;;10.15;100.00
39891;BME280;25564;53.312;9.790;2023-04-01T00:49:40;98729.25;;;9.91;100.00
39891;BME280;25564;53.312;9.790;2023-04-01T00:52:17;98774.81;;;10.18;100.00
39891;BME280;25564;53.312;9.790;2023-04-01T00:54:54;98780.41;;;10.12;100.00
39891;BME280;25564;53.312;9.790;2023-04-01T00:57:31;98762.13;;;10.06;100.00
39891;BME280;25564;53.312;9.790;2023-04-01T01:00:06;98723.66;;;9.78;100.00
39891;BME280;25564;53.312;9.790;2023-04-01T01:02:45;98770.06;;;10.06;100.00
39891;BME280;25564;53.312;9.790;2023-04-01T01:05:21;98783.69;;;10.17;100.00
39891;BME280;25564;53.312;9.790;2023-04-01T01:08:14;98744.38;;;9.89;100.00
39891;BME280;25564;53.312;9.790;2023-04-01T01:10:49;98779.69;;;10.08;100.00
39891;BME280;25564;53.312;9.790;2023-04-01T01:13:44;98700.69;;;9.60;100.00
39891;BME280;25564;53.312;9.790;2023-04-01T01:16:24;98786.63;;;10.11;100.00
39891;BME280;25564;53.312;9.790;2023-04-01T01:34:14;98775.81;;;9.97;100.00
39891;BME280;25564;53.312;9.790;2023-04-01T01:36:58;98769.66;;;9.96;100.00
39891;BME280;25564;53.312;9.790;2023-04-01T01:39:33;98782.69;;;10.01;100.00
39891;BME280;25564;53.312;9.790;2023-04-01T01:42:09;98768.94;;;9.93;100.00
39891;BME280;25564;53.312;9.790;2023-04-01T01:44:44;98733.69;;;9.72;100.00
39891;BME280;25564;53.312;9.790;2023-04-01T01:47:19;98781.03;;;9.98;100.00
39891;BME280;25564;53.312;9.790;2023-04-01T01:49:53;98793.28;;;10.01;100.00
39891;BME280;25564;53.312;9.790;2023-04-01T01:52:27;98710.63;;;9.55;100.00
39891;BME280;25564;53.312;9.790;2023-04-01T01:54:59;98786.41;;;9.97;100.00
39891;BME280;25564;53.312;9.790;2023-04-01T01:57:36;98711.75;;;9.49;100.00
39891;BME280;25564;53.312;9.790;2023-04-01T02:00:10;98785.09;;;9.87;100.00
39891;BME280;25564;53.312;9.790;2023-04-01T02:02:47;98778.38;;;9.79;100.00
39891;BME280;25564;53.312;9.790;2023-04-01T02:05:23;98779.44;;;9.75;100.00
39891;BME280;25564;53.312;9.790;2023-04-01T02:08:23;98804.72;;;9.82;100.00
39891;BME280;25564;53.312;9.790;2023-04-01T02:10:57;98767.09;;;9.56;100.00
39891;BME280;25564;53.312;9.790;2023-04-01T02:13:37;98796.53;;;9.68;100.00
39891;BME280;25564;53.312;9.790;2023-04-01T02:16:36;98785.28;;;9.63;100.00
39891;BME280;25564;53.312;9.790;2023-04-01T02:19:11;98797.53;;;9.66;100.00
39891;BME280;25564;53.312;9.790;2023-04-01T02:21:44;98753.53;;;9.43;100.00
39891;BME280;25564;53.312;9.790;2023-04-01T02:24:17;98758.56;;;9.49;100.00
39891;BME280;25564;53.312;9.790;2023-04-01T02:26:52;98815.59;;;9.76;100.00
39891;BME280;25564;53.312;9.790;2023-04-01T02:29:24;98786.88;;;9.67;100.00
39891;BME280;25564;53.312;9.790;2023-04-01T02:31:57;98808.94;;;9.87;100.00
39891;BME280;25564;53.312;9.790;2023-04-01T02:34:29;98741.22;;;9.42;100.00
39891;BME280;25564;53.312;9.790;2023-04-01T02:37:01;98755.84;;;9.50;100.00
39891;BME280;25564;53.312;9.790;2023-04-01T02:39:32;98805.00;;;9.76;100.00
39891;BME280;25564;53.312;9.790;2023-04-01T02:42:04;98724.91;;;9.32;100.00
39891;BME280;25564;53.312;9.790;2023-04-01T02:44:36;98764.63;;;9.51;100.00
39891;BME280;25564;53.312;9.790;2023-04-01T02:47:07;98761.84;;;9.54;100.00
39891;BME280;25564;53.312;9.790;2023-04-01T02:49:39;98811.72;;;9.83;100.00
39891;BME280;25564;53.312;9.790;2023-04-01T02:52:10;98797.91;;;9.77;100.00
39891;BME280;25564;53.312;9.790;2023-04-01T02:54:42;98799.28;;;9.86;100.00
39891;BME280;25564;53.312;9.790;2023-04-01T02:57:13;98816.81;;;9.88;100.00
39891;BME280;25564;53.312;9.790;2023-04-01T02:59:44;98811.59;;;9.87;100.00
39891;BME280;25564;53.312;9.790;2023-04-01T03:02:16;98831.16;;;10.03;100.00
39891;BME280;25564;53.312;9.790;2023-04-01T03:04:48;98817.53;;;9.92;100.00
39891;BME280;25564;53.312;9.790;2023-04-01T03:07:19;98826.28;;;9.94;100.00
39891;BME280;25564;53.312;9.790;2023-04-01T03:09:51;98816.63;;;9.93;100.00
39891;BME280;25564;53.312;9.790;2023-04-01T03:12:22;98817.69;;;9.89;100.00
39891;BME280;25564;53.312;9.790;2023-04-01T03:14:54;98814.19;;;9.88;100.00
39891;BME280;25564;53.312;9.790;2023-04-01T03:17:25;98817.81;;;9.86;100.00
39891;BME280;25564;53.312;9.790;2023-04-01T03:19:57;98831.59;;;9.94;100.00
39891;BME280;25564;53.312;9.790;2023-04-01T03:22:28;98798.84;;;9.76;100.00
39891;BME280;25564;53.312;9.790;2023-04-01T03:24:59;98812.53;;;9.86;100.00
39891;BME280;25564;53.312;9.790;2023-04-01T03:27:31;98842.69;;;10.02;100.00
39891;BME280;25564;53.312;9.790;2023-04-01T03:30:04;98820.06;;;9.95;100.00
39891;BME280;25564;53.312;9.790;2023-04-01T03:32:36;98827.22;;;9.93;100.00
39891;BME280;25564;53.312;9.790;2023-04-01T03:35:08;98790.97;;;9.74;100.00
39891;BME280;25564;53.312;9.790;2023-04-01T03:37:40;98838.47;;;9.98;100.00
39891;BME280;25564;53.312;9.790;2023-04-01T03:40:12;98821.78;;;9.96;100.00
39891;BME280;25564;53.312;9.790;2023-04-01T03:42:44;98845.28;;;10.03;100.00
39891;BME280;25564;53.312;9.790;2023-04-01T03:45:15;98831.44;;;9.97;100.00
39891;BME280;25564;53.312;9.790;2023-04-01T03:47:47;98794.59;;;9.72;100.00
39891;BME280;25564;53.312;9.790;2023-04-01T03:50:18;98835.16;;;9.93;100.00
39891;BME280;25564;53.312;9.790;2023-04-01T03:52:50;98835.75;;;9.99;100.00
39891;BME280;25564;53.312;9.790;2023-04-01T03:55:22;98794.53;;;9.73;100.00
39891;BME280;25564;53.312;9.790;2023-04-01T03:57:53;98841.97;;;9.98;100.00
39891;BME280;25564;53.312;9.790;2023-04-01T04:00:24;98841.84;;;10.01;100.00
39891;BME280;25564;53.312;9.790;2023-04-01T04:02:57;98850.72;;;10.00;100.00
39891;BME280;25564;53.312;9.790;2023-04-01T04:05:28;98836.03;;;9.93;100.00
39891;BME280;25564;53.312;9.790;2023-04-01T04:08:00;98817.25;;;9.79;100.00
39891;BME280;25564;53.312;9.790;2023-04-01T04:10:31;98854.44;;;9.96;100.00
39891;BME280;25564;53.312;9.790;2023-04-01T04:13:03;98856.03;;;10.00;100.00
39891;BME280;25564;53.312;9.790;2023-04-01T04:15:34;98791.50;;;9.62;100.00
39891;BME280;25564;53.312;9.790;2023-04-01T04:18:05;98855.38;;;9.95;100.00
39891;BME280;25564;53.312;9.790;2023-04-01T04:20:43;98840.59;;;9.90;100.00
39891;BME280;25564;53.312;9.790;2023-04-01T04:23:17;98864.16;;;9.96;100.00
39891;BME280;25564;53.312;9.790;2023-04-01T04:26:04;98878.06;;;10.01;100.00
39891;BME280;25564;53.312;9.790;2023-04-01T04:28:36;98859.16;;;9.90;100.00
39891;BME280;25564;53.312;9.790;2023-04-01T04:31:08;98859.16;;;9.90;100.00
39891;BME280;25564;53.312;9.790;2023-04-01T04:33:39;98854.06;;;9.85;100.00
39891;BME280;25564;53.312;9.790;2023-04-01T04:36:11;98849.81;;;9.81;100.00
39891;BME280;25564;53.312;9.790;2023-04-01T04:38:42;98873.19;;;9.92;100.00
39891;BME280;25564;53.312;9.790;2023-04-01T04:41:15;98816.13;;;9.64;100.00
39891;BME280;25564;53.312;9.790;2023-04-01T04:43:54;98867.22;;;9.87;100.00
39891;BME280;25564;53.312;9.790;2023-04-01T04:46:25;98880.06;;;9.96;100.00
39891;BME280;25564;53.312;9.790;2023-04-01T04:48:57;98861.13;;;9.84;100.00
39891;BME280;25564;53.312;9.790;2023-04-01T04:51:28;98896.69;;;9.99;100.00
39891;BME280;25564;53.312;9.790;2023-04-01T04:54:00;98887.09;;;9.97;100.00
39891;BME280;25564;53.312;9.790;2023-04-01T04:56:31;98816.53;;;9.55;100.00
39891;BME280;25564;53.312;9.790;2023-04-01T04:59:03;98886.16;;;9.98;100.00
39891;BME280;25564;53.312;9.790;2023-04-01T05:01:34;98895.69;;;10.02;100.00
39891;BME280;25564;53.312;9.790;2023-04-01T05:04:06;98823.41;;;9.59;100.00
39891;BME280;25564;53.312;9.790;2023-04-01T05:06:37;98893.97;;;10.01;100.00
39891;BME280;25564;53.312;9.790;2023-04-01T05:09:09;98880.06;;;9.96;100.00
39891;BME280;25564;53.312;9.790;2023-04-01T05:11:40;98905.38;;;10.03;100.00
39891;BME280;25564;53.312;9.790;2023-04-01T05:14:13;98845.25;;;9.64;100.00
39891;BME280;25564;53.312;9.790;2023-04-01T05:16:45;98883.91;;;9.89;100.00
39891;BME280;25564;53.312;9.790;2023-04-01T05:19:17;98910.53;;;10.06;100.00
39891;BME280;25564;53.312;9.790;2023-04-01T05:21:48;98917.75;;;10.02;100.00
39891;BME280;25564;53.312;9.790;2023-04-01T05:24:20;98912.31;;;10.05;100.00
39891;BME280;25564;53.312;9.790;2023-04-01T05:26:51;98889.00;;;9.93;100.00
39891;BME280;25564;53.312;9.790;2023-04-01T05:29:25;98843.34;;;9.68;100.00
39891;BME280;25564;53.312;9.790;2023-04-01T05:31:57;98918.22;;;10.12;100.00
39891;BME280;25564;53.312;9.790;2023-04-01T05:34:28;98908.16;;;10.00;100.00
39891;BME280;25564;53.312;9.790;2023-04-01T05:37:00;98926.16;;;10.12;100.00
39891;BME280;25564;53.312;9.790;2023-04-01T05:39:31;98925.97;;;10.16;100.00
39891;BME280;25564;53.312;9.790;2023-04-01T05:42:05;98857.84;;;9.79;100.00
39891;BME280;25564;53.312;9.790;2023-04-01T05:44:37;98929.38;;;10.20;100.00
39891;BME280;25564;53.312;9.790;2023-04-01T05:47:08;98860.47;;;9.79;100.00
39891;BME280;25564;53.312;9.790;2023-04-01T05:49:40;98930.88;;;10.26;100.00
39891;BME280;25564;53.312;9.790;2023-04-01T05:52:11;98937.06;;;10.26;100.00
39891;BME280;25564;53.312;9.790;2023-04-01T05:54:43;98933.84;;;10.18;100.00
39891;BME280;25564;53.312;9.790;2023-04-01T05:57:14;98947.59;;;10.28;100.00
39891;BME280;25564;53.312;9.790;2023-04-01T05:59:46;98931.25;;;10.16;100.00
39891;BME280;25564;53.312;9.790;2023-04-01T06:02:18;98915.63;;;10.10;100.00
39891;BME280;25564;53.312;9.790;2023-04-01T06:04:56;98927.44;;;10.24;100.00
39891;BME280;25564;53.312;9.790;2023-04-01T06:07:33;98914.38;;;10.19;100.00
39891;BME280;25564;53.312;9.790;2023-04-01T06:10:17;98941.81;;;10.38;100.00
39891;BME280;25564;53.312;9.790;2023-04-01T06:13:18;98942.88;;;10.34;100.00
39891;BME280;25564;53.312;9.790;2023-04-01T06:16:09;98876.50;;;9.97;100.00
39891;BME280;25564;53.312;9.790;2023-04-01T06:22:14;98960.13;;;10.43;100.00
39891;BME280;25564;53.312;9.790;2023-04-01T06:25:13;98913.78;;;10.12;100.00
39891;BME280;25564;53.312;9.790;2023-04-01T06:28:04;98934.66;;;10.20;100.00
39891;BME280;25564;53.312;9.790;2023-04-01T06:30:47;98974.91;;;10.48;100.00
39891;BME280;25564;53.312;9.790;2023-04-01T06:36:35;98973.03;;;10.51;100.00
39891;BME280;25564;53.312;9.790;2023-04-01T06:39:23;98934.84;;;10.36;100.00
39891;BME280;25564;53.312;9.790;2023-04-01T06:47:28;98983.41;;;10.75;100.00
39891;BME280;25564;53.312;9.790;2023-04-01T06:50:24;98914.06;;;10.27;100.00
39891;BME280;25564;53.312;9.790;2023-04-01T06:53:09;99007.06;;;10.80;100.00
39891;BME280;25564;53.312;9.790;2023-04-01T06:55:47;98999.19;;;10.78;100.00
39891;BME280;25564;53.312;9.790;2023-04-01T06:58:23;99015.09;;;10.78;100.00
39891;BME280;25564;53.312;9.790;2023-04-01T07:00:58;98986.94;;;10.56;100.00
39891;BME280;25564;53.312;9.790;2023-04-01T07:03:34;99018.97;;;10.71;100.00
39891;BME280;25564;53.312;9.790;2023-04-01T07:06:15;98998.16;;;10.62;100.00
39891;BME280;25564;53.312;9.790;2023-04-01T07:08:53;98920.56;;;10.20;100.00
39891;BME280;25564;53.312;9.790;2023-04-01T07:11:29;99019.41;;;10.81;100.00
39891;BME280;25564;53.312;9.790;2023-04-01T07:14:13;99009.00;;;10.76;100.00
39891;BME280;25564;53.312;9.790;2023-04-01T07:17:03;98985.59;;;10.66;100.00
39891;BME280;25564;53.312;9.790;2023-04-01T07:19:52;99022.56;;;10.89;100.00
39891;BME280;25564;53.312;9.790;2023-04-01T07:22:40;98935.91;;;10.32;100.00
39891;BME280;25564;53.312;9.790;2023-04-01T07:25:17;99025.34;;;10.86;100.00
39891;BME280;25564;53.312;9.790;2023-04-01T07:27:49;99039.41;;;10.88;100.00
39891;BME280;25564;53.312;9.790;2023-04-01T07:30:23;99048.44;;;10.84;100.00
39891;BME280;25564;53.312;9.790;2023-04-01T07:33:14;99048.78;;;10.76;100.00
39891;BME280;25564;53.312;9.790;2023-04-01T07:36:04;99055.03;;;10.75;100.00
39891;BME280;25564;53.312;9.790;2023-04-01T07:41:33;99064.31;;;10.26;100.00
39891;BME280;25564;53.312;9.790;2023-04-01T07:44:47;99052.94;;;9.80;100.00
39891;BME280;25564;53.312;9.790;2023-04-01T07:47:34;99070.31;;;9.66;100.00
39891;BME280;25564;53.312;9.790;2023-04-01T07:55:42;99109.09;;;9.23;100.00
39891;BME280;25564;53.312;9.790;2023-04-01T08:01:23;99094.13;;;8.99;100.00
39891;BME280;25564;53.312;9.790;2023-04-01T08:04:17;99115.34;;;8.97;100.00
39891;BME280;25564;53.312;9.790;2023-04-01T08:15:28;99126.16;;;8.66;100.00
39891;BME280;25564;53.312;9.790;2023-04-01T08:18:25;99142.56;;;8.76;100.00
39891;BME280;25564;53.312;9.790;2023-04-01T08:21:02;99142.63;;;8.74;100.00
39891;BME280;25564;53.312;9.790;2023-04-01T08:23:43;99140.13;;;8.70;100.00
39891;BME280;25564;53.312;9.790;2023-04-01T08:29:01;99162.91;;;8.49;100.00
39891;BME280;25564;53.312;9.790;2023-04-01T08:31:43;99107.97;;;8.06;100.00
39891;BME280;25564;53.312;9.790;2023-04-01T08:34:40;99147.91;;;8.23;100.00
39891;BME280;25564;53.312;9.790;2023-04-01T08:37:24;99147.44;;;8.10;100.00
39891;BME280;25564;53.312;9.790;2023-04-01T08:40:39;99119.81;;;7.94;100.00
39891;BME280;25564;53.312;9.790;2023-04-01T08:43:30;99180.22;;;8.05;100.00
39891;BME280;25564;53.312;9.790;2023-04-01T08:46:19;99073.63;;;7.25;100.00
39891;BME280;25564;53.312;9.790;2023-04-01T08:54:55;99196.53;;;7.90;100.00
39891;BME280;25564;53.312;9.790;2023-04-01T08:57:41;99196.72;;;7.83;100.00
39891;BME280;25564;53.312;9.790;2023-04-01T09:03:32;99194.72;;;7.92;100.00
39891;BME280;25564;53.312;9.790;2023-04-01T09:06:25;99186.78;;;7.92;100.00
39891;BME280;25564;53.312;9.790;2023-04-01T09:20:42;99112.47;;;7.20;100.00
39891;BME280;25564;53.312;9.790;2023-04-01T09:23:47;99211.66;;;7.55;100.00
39891;BME280;25564;53.312;9.790;2023-04-01T09:26:34;99215.22;;;7.54;100.00
39891;BME280;25564;53.312;9.790;2023-04-01T09:32:23;99241.53;;;7.57;100.00
39891;BME280;25564;53.312;9.790;2023-04-01T09:35:20;99238.97;;;7.54;100.00
39891;BME280;25564;53.312;9.790;2023-04-01T09:38:29;99249.06;;;7.40;100.00
39891;BME280;25564;53.312;9.790;2023-04-01T09:41:12;99262.00;;;7.49;100.00
39891;BME280;25564;53.312;9.790;2023-04-01T09:44:01;99252.16;;;7.54;100.00
39891;BME280;25564;53.312;9.790;2023-04-01T09:46:52;99171.22;;;6.94;100.00
39891;BME280;25564;53.312;9.790;2023-04-01T09:52:38;99280.13;;;7.61;100.00
39891;BME280;25564;53.312;9.790;2023-04-01T09:58:24;99292.38;;;7.64;100.00
39891;BME280;25564;53.312;9.790;2023-04-01T10:01:26;99286.06;;;7.69;100.00
39891;BME280;25564;53.312;9.790;2023-04-01T10:04:35;99279.09;;;7.67;100.00
39891;BME280;25564;53.312;9.790;2023-04-01T10:10:36;99286.44;;;7.55;100.00
39891;BME280;25564;53.312;9.790;2023-04-01T10:13:42;99297.03;;;7.54;100.00
39891;BME280;25564;53.312;9.790;2023-04-01T10:28:50;99310.06;;;7.60;100.00
39891;BME280;25564;53.312;9.790;2023-04-01T10:49:43;99345.56;;;7.50;100.00
39891;BME280;25564;53.312;9.790;2023-04-01T10:52:37;99320.47;;;7.34;100.00
39891;BME280;25564;53.312;9.790;2023-04-01T10:55:37;99354.13;;;7.58;100.00
39891;BME280;25564;53.312;9.790;2023-04-01T11:01:27;99303.66;;;7.38;100.00
39891;BME280;25564;53.312;9.790;2023-04-01T11:24:34;99404.69;;;7.75;100.00
39891;BME280;25564;53.312;9.790;2023-04-01T11:30:02;99271.78;;;7.14;100.00
39891;BME280;25564;53.312;9.790;2023-04-01T11:32:52;99286.44;;;7.25;100.00
39891;BME280;25564;53.312;9.790;2023-04-01T11:35:46;99292.69;;;7.22;100.00
39891;BME280;25564;53.312;9.790;2023-04-01T11:38:31;99401.59;;;7.92;100.00
39891;BME280;25564;53.312;9.790;2023-04-01T11:44:15;99404.16;;;7.95;100.00
39891;BME280;25564;53.312;9.790;2023-04-01T11:53:15;99422.19;;;7.79;100.00
39891;BME280;25564;53.312;9.790;2023-04-01T11:56:01;99413.00;;;7.62;100.00
39891;BME280;25564;53.312;9.790;2023-04-01T12:01:43;99432.34;;;7.62;100.00
39891;BME280;25564;53.312;9.790;2023-04-01T12:04:45;99442.06;;;7.60;100.00
39891;BME280;25564;53.312;9.790;2023-04-01T12:07:53;99452.81;;;7.52;100.00
39891;BME280;25564;53.312;9.790;2023-04-01T12:11:04;99457.44;;;7.44;100.00
39891;BME280;25564;53.312;9.790;2023-04-01T12:14:05;99467.88;;;7.49;100.00
39891;BME280;25564;53.312;9.790;2023-04-01T12:17:08;99471.38;;;7.49;100.00
39891;BME280;25564;53.312;9.790;2023-04-01T12:23:06;99462.56;;;7.50;100.00
39891;BME280;25564;53.312;9.790;2023-04-01T12:28:32;99478.88;;;7.66;100.00
39891;BME280;25564;53.312;9.790;2023-04-01T12:34:44;99486.91;;;7.62;100.00
39891;BME280;25564;53.312;9.790;2023-04-01T12:37:36;99477.38;;;7.56;100.00
39891;BME280;25564;53.312;9.790;2023-04-01T12:40:20;99508.06;;;7.60;100.00
39891;BME280;25564;53.312;9.790;2023-04-01T12:52:14;99517.69;;;7.27;100.00
39891;BME280;25564;53.312;9.790;2023-04-01T12:58:15;99500.00;;;6.94;100.00
39891;BME280;25564;53.312;9.790;2023-04-01T13:01:23;99508.72;;;6.97;100.00
39891;BME280;25564;53.312;9.790;2023-04-01T13:07:22;99548.78;;;7.14;100.00
39891;BME280;25564;53.312;9.790;2023-04-01T13:10:27;99553.25;;;7.11;100.00
39891;BME280;25564;53.312;9.790;2023-04-01T13:15:45;99543.06;;;6.94;100.00
39891;BME280;25564;53.312;9.790;2023-04-01T13:18:40;99518.75;;;6.80;100.00
39891;BME280;25564;53.312;9.790;2023-04-01T13:21:21;99564.91;;;7.01;100.00
39891;BME280;25564;53.312;9.790;2023-04-01T13:27:09;99472.16;;;6.40;100.00
39891;BME280;25564;53.312;9.790;2023-04-01T13:29:59;99566.22;;;6.80;100.00
39891;BME280;25564;53.312;9.790;2023-04-01T13:44:54;99613.91;;;6.68;100.00
39891;BME280;25564;53.312;9.790;2023-04-01T13:56:33;99622.84;;;6.61;100.00
39891;BME280;25564;53.312;9.790;2023-04-01T14:02:30;99634.97;;;6.69;100.00
39891;BME280;25564;53.312;9.790;2023-04-01T14:05:35;99648.31;;;6.62;100.00
39891;BME280;25564;53.312;9.790;2023-04-01T14:08:17;99643.97;;;6.59;100.00
39891;BME280;25564;53.312;9.790;2023-04-01T14:19:56;99581.94;;;5.94;100.00
39891;BME280;25564;53.312;9.790;2023-04-01T14:34:00;99571.25;;;5.47;100.00
39891;BME280;25564;53.312;9.790;2023-04-01T14:36:50;99695.84;;;6.06;100.00
39891;BME280;25564;53.312;9.790;2023-04-01T14:45:36;99709.22;;;5.93;100.00
39891;BME280;25564;53.312;9.790;2023-04-01T14:48:34;99687.50;;;5.75;100.00
39891;BME280;25564;53.312;9.790;2023-04-01T14:51:28;99715.44;;;5.84;100.00
39891;BME280;25564;53.312;9.790;2023-04-01T14:56:41;99732.16;;;5.81;100.00
39891;BME280;25564;53.312;9.790;2023-04-01T14:59:14;99727.75;;;5.83;100.00
39891;BME280;25564;53.312;9.790;2023-04-01T15:07:48;99737.50;;;5.75;100.00
39891;BME280;25564;53.312;9.790;2023-04-01T15:14:17;99701.00;;;5.51;100.00
39891;BME280;25564;53.312;9.790;2023-04-01T15:22:58;99768.09;;;5.84;100.00
39891;BME280;25564;53.312;9.790;2023-04-01T15:28:54;99776.06;;;5.79;100.00
39891;BME280;25564;53.312;9.790;2023-04-01T15:31:49;99751.56;;;5.74;100.00
39891;BME280;25564;53.312;9.790;2023-04-01T15:34:50;99779.63;;;5.75;100.00
39891;BME280;25564;53.312;9.790;2023-04-01T15:37:44;99802.34;;;5.84;100.00
39891;BME280;25564;53.312;9.790;2023-04-01T15:43:06;99692.06;;;4.95;100.00
39891;BME280;25564;53.312;9.790;2023-04-01T15:45:51;99843.88;;;5.57;100.00
39891;BME280;25564;53.312;9.790;2023-04-01T15:48:33;99740.19;;;5.03;100.00
39891;BME280;25564;53.312;9.790;2023-04-01T15:51:31;99826.47;;;5.47;100.00
39891;BME280;25564;53.312;9.790;2023-04-01T15:57:47;99808.91;;;5.49;100.00
39891;BME280;25564;53.312;9.790;2023-04-01T16:00:31;99820.22;;;5.56;100.00
39891;BME280;25564;53.312;9.790;2023-04-01T16:03:33;99842.03;;;5.66;100.00
39891;BME280;25564;53.312;9.790;2023-04-01T16:06:33;99833.31;;;5.61;100.00
39891;BME280;25564;53.312;9.790;2023-04-01T16:12:37;99850.78;;;5.68;100.00
39891;BME280;25564;53.312;9.790;2023-04-01T16:15:37;99801.19;;;5.34;100.00
39891;BME280;25564;53.312;9.790;2023-04-01T16:21:44;99858.03;;;5.49;100.00
39891;BME280;25564;53.312;9.790;2023-04-01T16:24:30;99782.25;;;5.03;100.00
39891;BME280;25564;53.312;9.790;2023-04-01T16:30:43;99882.50;;;5.55;100.00
39891;BME280;25564;53.312;9.790;2023-04-01T16:33:38;99886.88;;;5.58;100.00
39891;BME280;25564;53.312;9.790;2023-04-01T16:36:33;99917.63;;;5.53;100.00
39891;BME280;25564;53.312;9.790;2023-04-01T16:39:22;99897.56;;;5.43;100.00
39891;BME280;25564;53.312;9.790;2023-04-01T16:44:29;99889.09;;;5.13;100.00
39891;BME280;25564;53.312;9.790;2023-04-01T16:47:17;99913.59;;;5.18;100.00
39891;BME280;25564;53.312;9.790;2023-04-01T16:49:53;99897.91;;;5.06;100.00
39891;BME280;25564;53.312;9.790;2023-04-01T16:55:47;99915.53;;;4.95;100.00
39891;BME280;25564;53.312;9.790;2023-04-01T16:58:25;99925.19;;;4.93;100.00
39891;BME280;25564;53.312;9.790;2023-04-01T17:01:17;99956.66;;;5.02;100.00
39891;BME280;25564;53.312;9.790;2023-04-01T17:03:57;99886.00;;;4.59;100.00
39891;BME280;25564;53.312;9.790;2023-04-01T17:06:43;99936.59;;;4.92;100.00
39891;BME280;25564;53.312;9.790;2023-04-01T17:09:25;99964.53;;;5.07;100.00
39891;BME280;25564;53.312;9.790;2023-04-01T17:12:09;99955.81;;;5.00;100.00
39891;BME280;25564;53.312;9.790;2023-04-01T17:15:02;99933.13;;;4.84;100.00
39891;BME280;25564;53.312;9.790;2023-04-01T17:20:40;99983.78;;;5.10;100.00
39891;BME280;25564;53.312;9.790;2023-04-01T17:31:49;100001.31;;;5.11;100.00
39891;BME280;25564;53.312;9.790;2023-04-01T17:34:51;100013.63;;;5.06;100.00
39891;BME280;25564;53.312;9.790;2023-04-01T17:40:33;100039.06;;;5.03;100.00
39891;BME280;25564;53.312;9.790;2023-04-01T17:45:57;100020.81;;;4.71;100.00
39891;BME280;25564;53.312;9.790;2023-04-01T17:48:49;100053.16;;;4.89;100.00
39891;BME280;25564;53.312;9.790;2023-04-01T17:51:38;100034.84;;;4.73;100.00
39891;BME280;25564;53.312;9.790;2023-04-01T17:57:14;100075.13;;;4.78;100.00
39891;BME280;25564;53.312;9.790;2023-04-01T18:06:01;100108.44;;;4.67;100.00
39891;BME280;25564;53.312;9.790;2023-04-01T18:17:38;100128.59;;;4.62;100.00
39891;BME280;25564;53.312;9.790;2023-04-01T18:23:19;100082.34;;;4.15;100.00
39891;BME280;25564;53.312;9.790;2023-04-01T18:26:13;100094.56;;;4.19;100.00
39891;BME280;25564;53.312;9.790;2023-04-01T18:29:13;100159.28;;;4.50;100.00
39891;BME280;25564;53.312;9.790;2023-04-01T18:32:26;100167.16;;;4.49;100.00
39891;BME280;25564;53.312;9.790;2023-04-01T18:35:14;100117.34;;;4.15;100.00
39891;BME280;25564;53.312;9.790;2023-04-01T18:37:57;100140.91;;;4.37;100.00
39891;BME280;25564;53.312;9.790;2023-04-01T18:43:34;100150.56;;;4.30;100.00
39891;BME280;25564;53.312;9.790;2023-04-01T18:49:06;100196.06;;;4.44;100.00
39891;BME280;25564;53.312;9.790;2023-04-01T18:52:03;100124.38;;;3.97;100.00
39891;BME280;25564;53.312;9.790;2023-04-01T18:57:45;100210.09;;;4.46;100.00
39891;BME280;25564;53.312;9.790;2023-04-01T19:00:39;100209.22;;;4.41;100.00
39891;BME280;25564;53.312;9.790;2023-04-01T19:05:47;100120.00;;;3.82;100.00
39891;BME280;25564;53.312;9.790;2023-04-01T19:08:35;100220.59;;;4.40;100.00
39891;BME280;25564;53.312;9.790;2023-04-01T19:11:14;100234.59;;;4.42;100.00
39891;BME280;25564;53.312;9.790;2023-04-01T19:13:55;100238.09;;;4.41;100.00
39891;BME280;25564;53.312;9.790;2023-04-01T19:16:51;100249.50;;;4.33;100.00
39891;BME280;25564;53.312;9.790;2023-04-01T19:19:56;100150.59;;;3.81;100.00
39891;BME280;25564;53.312;9.790;2023-04-01T19:22:41;100266.13;;;4.36;100.00
39891;BME280;25564;53.312;9.790;2023-04-01T19:25:42;100264.38;;;4.35;100.00
39891;BME280;25564;53.312;9.790;2023-04-01T19:28:47;100255.63;;;4.22;100.00
39891;BME280;25564;53.312;9.790;2023-04-01T19:37:39;100261.78;;;4.15;100.00
39891;BME280;25564;53.312;9.790;2023-04-01T19:40:32;100283.63;;;4.23;100.00
39891;BME280;25564;53.312;9.790;2023-04-01T19:43:31;100309.03;;;4.31;100.00
39891;BME280;25564;53.312;9.790;2023-04-01T19:46:27;100302.03;;;4.26;100.00